sensor_id;sensor_type;location;lat;lon;timestamp;pressure;altitude;pressure_sealevel;temperature;humidity
68075;BME280;54864;52.002;5.468;2022-08-19T00:00:31;101184.88;;;21.67;66.16
68075;BME280;54864;52.002;5.468;2022-08-19T00:01:33;101186.25;;;21.61;66.40
68075;BME280;54864;52.002;5.468;2022-08-19T00:02:36;101184.81;;;21.57;66.20
68075;BME280;54864;52.002;5.468;2022-08-19T00:03:37;101181.00;;;21.60;66.04
68075;BME280;54864;52.002;5.468;2022-08-19T00:04:38;101186.72;;;21.66;66.17
68075;BME280;54864;52.002;5.468;2022-08-19T00:05:40;101178.66;;;21.66;66.07
68075;BME280;54864;52.002;5.468;2022-08-19T00:06:44;101186.97;;;21.63;66.08
68075;BME280;54864;52.002;5.468;2022-08-19T00:07:45;101178.06;;;21.63;66.10
68075;BME280;54864;52.002;5.468;2022-08-19T00:08:47;101184.41;;;21.62;66.35
68075;BME280;54864;52.002;5.468;2022-08-19T00:09:47;101177.47;;;21.59;66.12
68075;BME280;54864;52.002;5.468;2022-08-19T00:10:51;101190.03;;;21.59;66.14
68075;BME280;54864;52.002;5.468;2022-08-19T00:11:53;101181.28;;;21.57;66.31
68075;BME280;54864;52.002;5.468;2022-08-19T00:12:56;101187.50;;;21.57;66.39
68075;BME280;54864;52.002;5.468;2022-08-19T00:13:57;101181.81;;;21.50;66.36
68075;BME280;54864;52.002;5.468;2022-08-19T00:14:59;101187.66;;;21.44;66.37
68075;BME280;54864;52.002;5.468;2022-08-19T00:16:00;101185.84;;;21.45;66.41
68075;BME280;54864;52.002;5.468;2022-08-19T00:17:02;101189.25;;;21.47;66.56
68075;BME280;54864;52.002;5.468;2022-08-19T00:18:04;101191.31;;;21.43;66.75
68075;BME280;54864;52.002;5.468;2022-08-19T00:19:06;101196.34;;;21.37;66.88
68075;BME280;54864;52.002;5.468;2022-08-19T00:20:10;101186.75;;;21.34;67.11
68075;BME280;54864;52.002;5.468;2022-08-19T00:21:13;101191.53;;;21.31;66.92
68075;BME280;54864;52.002;5.468;2022-08-19T00:22:14;101194.66;;;21.36;66.75
68075;BME280;54864;52.002;5.468;2022-08-19T00:23:18;101192.69;;;21.38;66.92
68075;BME280;54864;52.002;5.468;2022-08-19T00:24:19;101187.47;;;21.36;66.49
68075;BME280;54864;52.002;5.468;2022-08-19T00:25:21;101192.69;;;21.38;66.75
68075;BME280;54864;52.002;5.468;2022-08-19T00:26:23;101192.69;;;21.38;66.76
68075;BME280;54864;52.002;5.468;2022-08-19T00:27:25;101199.91;;;21.37;66.73
68075;BME280;54864;52.002;5.468;2022-08-19T00:28:26;101197.09;;;21.39;66.93
68075;BME280;54864;52.002;5.468;2022-08-19T00:29:28;101195.66;;;21.35;66.73
68075;BME280;54864;52.002;5.468;2022-08-19T00:30:29;101192.88;;;21.25;67.04
68075;BME280;54864;52.002;5.468;2022-08-19T00:31:31;101194.59;;;21.26;67.21
68075;BME280;54864;52.002;5.468;2022-08-19T00:32:32;101199.94;;;21.26;67.19
68075;BME280;54864;52.002;5.468;2022-08-19T00:33:34;101201.06;;;21.24;67.11
68075;BME280;54864;52.002;5.468;2022-08-19T00:34:36;101193.00;;;21.24;67.06
68075;BME280;54864;52.002;5.468;2022-08-19T00:35:37;101193.00;;;21.24;67.06
68075;BME280;54864;52.002;5.468;2022-08-19T00:36:39;101186.91;;;21.21;67.02
68075;BME280;54864;52.002;5.468;2022-08-19T00:37:41;101188.63;;;21.23;67.06
68075;BME280;54864;52.002;5.468;2022-08-19T00:38:43;101182.66;;;21.19;66.68
68075;BME280;54864;52.002;5.468;2022-08-19T00:39:45;101186.81;;;21.23;66.80
68075;BME280;54864;52.002;5.468;2022-08-19T00:40:46;101181.44;;;21.23;66.66
68075;BME280;54864;52.002;5.468;2022-08-19T00:41:50;101186.03;;;21.21;66.76
68075;BME280;54864;52.002;5.468;2022-08-19T00:42:52;101186.81;;;21.23;66.74
68075;BME280;54864;52.002;5.468;2022-08-19T00:43:59;101183.38;;;21.21;66.74
68075;BME280;54864;52.002;5.468;2022-08-19T00:45:01;101184.22;;;21.21;66.71
68075;BME280;54864;52.002;5.468;2022-08-19T00:46:05;101184.97;;;21.24;66.60
68075;BME280;54864;52.002;5.468;2022-08-19T00:47:05;101186.31;;;21.18;66.60
68075;BME280;54864;52.002;5.468;2022-08-19T00:48:08;101188.25;;;21.16;66.62
68075;BME280;54864;52.002;5.468;2022-08-19T00:49:11;101194.47;;;21.16;66.66
68075;BME280;54864;52.002;5.468;2022-08-19T00:50:18;101198.72;;;21.19;66.60
68075;BME280;54864;52.002;5.468;2022-08-19T00:51:21;101193.16;;;21.11;66.86
68075;BME280;54864;52.002;5.468;2022-08-19T00:52:26;101186.47;;;21.05;66.75
68075;BME280;54864;52.002;5.468;2022-08-19T00:53:30;101198.19;;;21.04;66.59
68075;BME280;54864;52.002;5.468;2022-08-19T00:54:33;101190.41;;;21.01;66.65
68075;BME280;54864;52.002;5.468;2022-08-19T00:55:37;101192.50;;;20.98;66.86
68075;BME280;54864;52.002;5.468;2022-08-19T00:56:41;101198.94;;;20.95;66.70
68075;BME280;54864;52.002;5.468;2022-08-19T00:57:46;101194.56;;;20.94;66.71
68075;BME280;54864;52.002;5.468;2022-08-19T00:58:50;101188.22;;;20.95;66.72
68075;BME280;54864;52.002;5.468;2022-08-19T00:59:52;101196.88;;;20.99;66.70
68075;BME280;54864;52.002;5.468;2022-08-19T01:00:56;101191.50;;;20.99;66.75
68075;BME280;54864;52.002;5.468;2022-08-19T01:01:58;101199.94;;;20.94;66.79
68075;BME280;54864;52.002;5.468;2022-08-19T01:03:00;101192.16;;;20.91;66.78
68075;BME280;54864;52.002;5.468;2022-08-19T01:04:01;101184.09;;;20.80;66.72
68075;BME280;54864;52.002;5.468;2022-08-19T01:05:08;101187.63;;;20.80;67.16
68075;BME280;54864;52.002;5.468;2022-08-19T01:06:10;101186.78;;;20.80;66.86
68075;BME280;54864;52.002;5.468;2022-08-19T01:07:12;101193.50;;;20.85;66.67
68075;BME280;54864;52.002;5.468;2022-08-19T01:08:14;101179.13;;;20.86;66.91
68075;BME280;54864;52.002;5.468;2022-08-19T01:09:17;101184.22;;;20.89;66.76
68075;BME280;54864;52.002;5.468;2022-08-19T01:10:22;101183.38;;;20.89;66.64
68075;BME280;54864;52.002;5.468;2022-08-19T01:11:26;101187.88;;;20.88;66.67
68075;BME280;54864;52.002;5.468;2022-08-19T01:12:27;101188.16;;;20.85;66.80
68075;BME280;54864;52.002;5.468;2022-08-19T01:13:33;101185.09;;;20.79;66.59
68075;BME280;54864;52.002;5.468;2022-08-19T01:14:35;101186.31;;;20.75;66.96
68075;BME280;54864;52.002;5.468;2022-08-19T01:15:40;101178.53;;;20.72;66.78
68075;BME280;54864;52.002;5.468;2022-08-19T01:16:45;101186.44;;;20.73;66.68
68075;BME280;54864;52.002;5.468;2022-08-19T01:17:47;101184.38;;;20.77;66.60
68075;BME280;54864;52.002;5.468;2022-08-19T01:18:50;101185.22;;;20.77;66.65
68075;BME280;54864;52.002;5.468;2022-08-19T01:19:52;101180.34;;;20.71;66.67
68075;BME280;54864;52.002;5.468;2022-08-19T01:20:54;101187.66;;;20.69;66.91
68075;BME280;54864;52.002;5.468;2022-08-19T01:22:04;101186.47;;;20.62;67.07
68075;BME280;54864;52.002;5.468;2022-08-19T01:23:11;101179.53;;;20.60;67.05
68075;BME280;54864;52.002;5.468;2022-08-19T01:24:14;101193.41;;;20.65;67.13
68075;BME280;54864;52.002;5.468;2022-08-19T01:25:17;101189.75;;;20.66;67.15
68075;BME280;54864;52.002;5.468;2022-08-19T01:26:22;101191.94;;;20.61;67.17
68075;BME280;54864;52.002;5.468;2022-08-19T01:27:24;101189.41;;;20.59;67.16
68075;BME280;54864;52.002;5.468;2022-08-19T01:28:27;101191.81;;;20.62;66.78
68075;BME280;54864;52.002;5.468;2022-08-19T01:29:28;101197.56;;;20.57;66.64
68075;BME280;54864;52.002;5.468;2022-08-19T01:30:33;101195.38;;;20.51;66.79
68075;BME280;54864;52.002;5.468;2022-08-19T01:31:35;101200.38;;;20.56;66.81
68075;BME280;54864;52.002;5.468;2022-08-19T01:32:37;101193.53;;;20.63;66.82
68075;BME280;54864;52.002;5.468;2022-08-19T01:33:37;101198.66;;;20.66;66.69
68075;BME280;54864;52.002;5.468;2022-08-19T01:34:39;101197.56;;;20.57;66.83
68075;BME280;54864;52.002;5.468;2022-08-19T01:35:41;101200.50;;;20.54;66.98
68075;BME280;54864;52.002;5.468;2022-08-19T01:36:45;101200.63;;;20.53;66.97
68075;BME280;54864;52.002;5.468;2022-08-19T01:37:49;101201.72;;;20.50;66.80
68075;BME280;54864;52.002;5.468;2022-08-19T01:38:55;101195.28;;;20.42;67.27
68075;BME280;54864;52.002;5.468;2022-08-19T01:39:56;101194.44;;;20.41;67.15
68075;BME280;54864;52.002;5.468;2022-08-19T01:40:58;101188.34;;;20.39;67.19
68075;BME280;54864;52.002;5.468;2022-08-19T01:41:59;101192.59;;;20.42;67.15
68075;BME280;54864;52.002;5.468;2022-08-19T01:43:04;101192.72;;;20.40;67.08
68075;BME280;54864;52.002;5.468;2022-08-19T01:44:07;101185.75;;;20.38;67.17
68075;BME280;54864;52.002;5.468;2022-08-19T01:45:10;101186.50;;;20.40;67.12
68075;BME280;54864;52.002;5.468;2022-08-19T01:46:11;101180.31;;;20.39;67.10
68075;BME280;54864;52.002;5.468;2022-08-19T01:47:13;101187.25;;;20.42;66.99
68075;BME280;54864;52.002;5.468;2022-08-19T01:48:14;101183.84;;;20.40;66.96
68075;BME280;54864;52.002;5.468;2022-08-19T01:49:17;101181.88;;;20.42;67.06
68075;BME280;54864;52.002;5.468;2022-08-19T01:50:20;101183.47;;;20.44;66.94
68075;BME280;54864;52.002;5.468;2022-08-19T01:51:22;101187.84;;;20.45;66.84
68075;BME280;54864;52.002;5.468;2022-08-19T01:52:23;101186.59;;;20.38;66.93
68075;BME280;54864;52.002;5.468;2022-08-19T01:53:25;101193.31;;;20.33;67.43
68075;BME280;54864;52.002;5.468;2022-08-19T01:54:27;101190.88;;;20.30;67.57
68075;BME280;54864;52.002;5.468;2022-08-19T01:55:28;101195.88;;;20.23;67.57
68075;BME280;54864;52.002;5.468;2022-08-19T01:56:29;101203.06;;;20.22;67.83
68075;BME280;54864;52.002;5.468;2022-08-19T01:57:31;101195.84;;;20.12;67.96
68075;BME280;54864;52.002;5.468;2022-08-19T01:58:35;101192.44;;;20.10;67.73
68075;BME280;54864;52.002;5.468;2022-08-19T01:59:40;101197.66;;;20.11;67.76
68075;BME280;54864;52.002;5.468;2022-08-19T02:00:42;101195.13;;;20.10;67.95
68075;BME280;54864;52.002;5.468;2022-08-19T02:01:45;101192.56;;;20.08;68.03
68075;BME280;54864;52.002;5.468;2022-08-19T02:02:46;101193.91;;;20.03;67.79
68075;BME280;54864;52.002;5.468;2022-08-19T02:03:48;101191.59;;;19.98;67.86
68075;BME280;54864;52.002;5.468;2022-08-19T02:04:49;101188.91;;;19.98;68.16
68075;BME280;54864;52.002;5.468;2022-08-19T02:05:54;101196.22;;;19.96;68.18
68075;BME280;54864;52.002;5.468;2022-08-19T02:06:57;101186.97;;;20.00;68.12
68075;BME280;54864;52.002;5.468;2022-08-19T02:07:59;101187.81;;;20.01;67.89
68075;BME280;54864;52.002;5.468;2022-08-19T02:09:00;101193.28;;;19.99;67.90
68075;BME280;54864;52.002;5.468;2022-08-19T02:10:06;101191.09;;;19.93;67.99
68075;BME280;54864;52.002;5.468;2022-08-19T02:11:08;101192.66;;;19.84;68.65
68075;BME280;54864;52.002;5.468;2022-08-19T02:12:19;101186.59;;;19.82;68.72
68075;BME280;54864;52.002;5.468;2022-08-19T02:13:21;101188.06;;;19.86;68.28
68075;BME280;54864;52.002;5.468;2022-08-19T02:14:23;101197.41;;;19.92;68.17
68075;BME280;54864;52.002;5.468;2022-08-19T02:15:24;101189.88;;;19.86;68.22
68075;BME280;54864;52.002;5.468;2022-08-19T02:16:25;101195.22;;;19.86;68.45
68075;BME280;54864;52.002;5.468;2022-08-19T02:17:26;101197.41;;;19.92;68.19
68075;BME280;54864;52.002;5.468;2022-08-19T02:18:29;101191.47;;;19.88;68.01
68075;BME280;54864;52.002;5.468;2022-08-19T02:19:30;101198.03;;;19.84;68.12
68075;BME280;54864;52.002;5.468;2022-08-19T02:20:33;101194.75;;;19.81;68.17
68075;BME280;54864;52.002;5.468;2022-08-19T02:21:34;101194.84;;;19.79;68.19
68075;BME280;54864;52.002;5.468;2022-08-19T02:22:36;101204.94;;;19.76;68.37
68075;BME280;54864;52.002;5.468;2022-08-19T02:23:36;101203.59;;;19.70;68.27
68075;BME280;54864;52.002;5.468;2022-08-19T02:24:38;101201.66;;;19.72;68.47
68075;BME280;54864;52.002;5.468;2022-08-19T02:25:41;101193.50;;;19.74;68.25
68075;BME280;54864;52.002;5.468;2022-08-19T02:26:44;101203.25;;;19.75;68.41
68075;BME280;54864;52.002;5.468;2022-08-19T02:27:45;101200.56;;;19.75;68.16
68075;BME280;54864;52.002;5.468;2022-08-19T02:28:47;101198.50;;;19.78;68.38
68075;BME280;54864;52.002;5.468;2022-08-19T02:29:49;101201.06;;;19.80;68.35
68075;BME280;54864;52.002;5.468;2022-08-19T02:30:51;101204.81;;;19.77;68.43
68075;BME280;54864;52.002;5.468;2022-08-19T02:31:52;101198.47;;;19.67;68.63
68075;BME280;54864;52.002;5.468;2022-08-19T02:32:54;101211.75;;;19.69;68.60
68075;BME280;54864;52.002;5.468;2022-08-19T02:33:55;101210.88;;;19.68;68.90
68075;BME280;54864;52.002;5.468;2022-08-19T02:34:57;101208.94;;;19.70;68.82
68075;BME280;54864;52.002;5.468;2022-08-19T02:35:58;101208.44;;;19.65;68.96
68075;BME280;54864;52.002;5.468;2022-08-19T02:37:00;101215.16;;;19.71;68.83
68075;BME280;54864;52.002;5.468;2022-08-19T02:38:00;101217.81;;;19.71;68.70
68075;BME280;54864;52.002;5.468;2022-08-19T02:39:20;101218.06;;;19.68;68.82
68075;BME280;54864;52.002;5.468;2022-08-19T02:40:21;101211.75;;;19.69;68.57
68075;BME280;54864;52.002;5.468;2022-08-19T02:41:25;101220.84;;;19.66;68.54
68075;BME280;54864;52.002;5.468;2022-08-19T02:42:27;101213.06;;;19.63;68.68
68075;BME280;54864;52.002;5.468;2022-08-19T02:43:30;101216.72;;;19.62;68.63
68075;BME280;54864;52.002;5.468;2022-08-19T02:44:32;101215.63;;;19.65;68.56
68075;BME280;54864;52.002;5.468;2022-08-19T02:45:34;101211.00;;;19.67;68.73
68075;BME280;54864;52.002;5.468;2022-08-19T02:46:36;101209.06;;;19.69;68.79
68075;BME280;54864;52.002;5.468;2022-08-19T02:47:37;101204.22;;;19.74;68.76
68075;BME280;54864;52.002;5.468;2022-08-19T02:48:39;101207.97;;;19.71;69.11
68075;BME280;54864;52.002;5.468;2022-08-19T02:49:40;101204.69;;;19.68;69.34
68075;BME280;54864;52.002;5.468;2022-08-19T02:50:41;101212.59;;;19.69;69.37
68075;BME280;54864;52.002;5.468;2022-08-19T02:51:43;101207.38;;;19.68;69.21
68075;BME280;54864;52.002;5.468;2022-08-19T02:52:46;101211.59;;;19.59;69.38
68075;BME280;54864;52.002;5.468;2022-08-19T02:53:47;101207.34;;;19.56;69.53
68075;BME280;54864;52.002;5.468;2022-08-19T02:54:49;101213.81;;;19.65;69.34
68075;BME280;54864;52.002;5.468;2022-08-19T02:55:50;101216.84;;;19.60;69.24
68075;BME280;54864;52.002;5.468;2022-08-19T02:56:53;101217.06;;;19.57;69.00
68075;BME280;54864;52.002;5.468;2022-08-19T02:57:54;101211.13;;;19.65;69.02
68075;BME280;54864;52.002;5.468;2022-08-19T02:58:57;101211.38;;;19.62;69.06
68075;BME280;54864;52.002;5.468;2022-08-19T02:59:58;101213.81;;;19.65;68.74
68075;BME280;54864;52.002;5.468;2022-08-19T03:01:01;101206.75;;;19.64;68.88
68075;BME280;54864;52.002;5.468;2022-08-19T03:02:02;101207.84;;;19.61;69.06
68075;BME280;54864;52.002;5.468;2022-08-19T03:03:04;101205.63;;;19.55;68.96
68075;BME280;54864;52.002;5.468;2022-08-19T03:04:08;101211.97;;;19.54;68.97
68075;BME280;54864;52.002;5.468;2022-08-19T03:05:16;101212.34;;;19.61;68.72
68075;BME280;54864;52.002;5.468;2022-08-19T03:06:17;101212.22;;;19.62;68.70
68075;BME280;54864;52.002;5.468;2022-08-19T03:07:19;101214.16;;;19.60;68.63
68075;BME280;54864;52.002;5.468;2022-08-19T03:08:20;101217.31;;;19.66;68.62
68075;BME280;54864;52.002;5.468;2022-08-19T03:09:21;101216.72;;;19.62;68.71
68075;BME280;54864;52.002;5.468;2022-08-19T03:10:22;101223.03;;;19.61;68.71
68075;BME280;54864;52.002;5.468;2022-08-19T03:11:26;101223.28;;;19.58;68.61
68075;BME280;54864;52.002;5.468;2022-08-19T03:12:31;101213.91;;;19.52;68.60
68075;BME280;54864;52.002;5.468;2022-08-19T03:13:32;101219.25;;;19.52;68.49
68075;BME280;54864;52.002;5.468;2022-08-19T03:14:34;101219.13;;;19.54;68.73
68075;BME280;54864;52.002;5.468;2022-08-19T03:15:39;101219.84;;;19.56;68.63
68075;BME280;54864;52.002;5.468;2022-08-19T03:16:42;101215.69;;;19.52;68.52
68075;BME280;54864;52.002;5.468;2022-08-19T03:17:45;101215.69;;;19.52;68.68
68075;BME280;54864;52.002;5.468;2022-08-19T03:18:46;101213.00;;;19.52;68.83
68075;BME280;54864;52.002;5.468;2022-08-19T03:19:48;101209.47;;;19.51;68.81
68075;BME280;54864;52.002;5.468;2022-08-19T03:20:51;101215.47;;;19.55;68.83
68075;BME280;54864;52.002;5.468;2022-08-19T03:21:54;101207.66;;;19.52;68.67
68075;BME280;54864;52.002;5.468;2022-08-19T03:22:55;101208.44;;;19.54;68.75
68075;BME280;54864;52.002;5.468;2022-08-19T03:23:59;101212.44;;;19.59;68.77
68075;BME280;54864;52.002;5.468;2022-08-19T03:25:01;101206.00;;;19.62;69.01
68075;BME280;54864;52.002;5.468;2022-08-19T03:26:04;101200.44;;;19.65;68.83
68075;BME280;54864;52.002;5.468;2022-08-19T03:27:06;101204.81;;;19.66;69.04
68075;BME280;54864;52.002;5.468;2022-08-19T03:28:10;101198.38;;;19.69;68.94
68075;BME280;54864;52.002;5.468;2022-08-19T03:29:12;101205.66;;;19.67;68.93
68075;BME280;54864;52.002;5.468;2022-08-19T03:30:14;101198.59;;;19.66;69.15
68075;BME280;54864;52.002;5.468;2022-08-19T03:31:17;101197.75;;;19.65;69.05
68075;BME280;54864;52.002;5.468;2022-08-19T03:32:20;101199.69;;;19.63;68.98
68075;BME280;54864;52.002;5.468;2022-08-19T03:33:22;101200.78;;;19.60;69.00
68075;BME280;54864;52.002;5.468;2022-08-19T03:34:27;101205.63;;;19.55;68.96
68075;BME280;54864;52.002;5.468;2022-08-19T03:35:29;101206.88;;;19.62;69.23
68075;BME280;54864;52.002;5.468;2022-08-19T03:36:31;101206.38;;;19.69;68.70
68075;BME280;54864;52.002;5.468;2022-08-19T03:37:33;101203.22;;;19.63;68.87
68075;BME280;54864;52.002;5.468;2022-08-19T03:38:34;101207.97;;;19.60;68.84
68075;BME280;54864;52.002;5.468;2022-08-19T03:39:38;101210.13;;;19.55;68.57
68075;BME280;54864;52.002;5.468;2022-08-19T03:40:40;101211.59;;;19.59;68.65
68075;BME280;54864;52.002;5.468;2022-08-19T03:41:45;101216.22;;;19.57;68.67
68075;BME280;54864;52.002;5.468;2022-08-19T03:42:46;101202.84;;;19.57;68.60
68075;BME280;54864;52.002;5.468;2022-08-19T03:43:50;101205.63;;;19.55;68.60
68075;BME280;54864;52.002;5.468;2022-08-19T03:44:52;101201.47;;;19.51;68.70
68075;BME280;54864;52.002;5.468;2022-08-19T03:46:00;101202.22;;;19.53;68.77
68075;BME280;54864;52.002;5.468;2022-08-19T03:47:03;101195.25;;;19.51;68.83
68075;BME280;54864;52.002;5.468;2022-08-19T03:48:06;101188.16;;;19.50;68.90
68075;BME280;54864;52.002;5.468;2022-08-19T03:49:08;101199.06;;;19.59;68.65
68075;BME280;54864;52.002;5.468;2022-08-19T03:50:09;101194.28;;;19.52;68.86
68075;BME280;54864;52.002;5.468;2022-08-19T03:51:16;101198.50;;;19.43;68.95
68075;BME280;54864;52.002;5.468;2022-08-19T03:52:17;101195.81;;;19.43;68.92
68075;BME280;54864;52.002;5.468;2022-08-19T03:53:19;101202.97;;;19.43;68.85
68075;BME280;54864;52.002;5.468;2022-08-19T03:54:22;101208.44;;;19.41;68.88
68075;BME280;54864;52.002;5.468;2022-08-19T03:55:24;101201.16;;;19.43;68.72
68075;BME280;54864;52.002;5.468;2022-08-19T03:56:26;101205.03;;;19.39;68.70
68075;BME280;54864;52.002;5.468;2022-08-19T03:57:28;101199.81;;;19.38;68.92
68075;BME280;54864;52.002;5.468;2022-08-19T03:58:29;101203.22;;;19.40;68.72
68075;BME280;54864;52.002;5.468;2022-08-19T03:59:35;101211.25;;;19.40;68.88
68075;BME280;54864;52.002;5.468;2022-08-19T04:00:37;101210.38;;;19.39;68.92
68075;BME280;54864;52.002;5.468;2022-08-19T04:01:39;101208.69;;;19.38;68.96
68075;BME280;54864;52.002;5.468;2022-08-19T04:02:40;101214.50;;;19.32;68.89
68075;BME280;54864;52.002;5.468;2022-08-19T04:03:43;101204.53;;;19.34;68.87
68075;BME280;54864;52.002;5.468;2022-08-19T04:04:45;101203.69;;;19.33;69.01
68075;BME280;54864;52.002;5.468;2022-08-19T04:05:47;101190.56;;;19.30;68.73
68075;BME280;54864;52.002;5.468;2022-08-19T04:06:48;101197.47;;;19.33;68.91
68075;BME280;54864;52.002;5.468;2022-08-19T04:07:51;101196.75;;;19.31;69.12
68075;BME280;54864;52.002;5.468;2022-08-19T04:08:54;101195.16;;;19.28;69.00
68075;BME280;54864;52.002;5.468;2022-08-19T04:09:55;101185.66;;;19.24;68.85
68075;BME280;54864;52.002;5.468;2022-08-19T04:10:56;101180.94;;;19.28;68.69
68075;BME280;54864;52.002;5.468;2022-08-19T04:11:58;101189.19;;;19.25;68.78
68075;BME280;54864;52.002;5.468;2022-08-19T04:12:59;101177.03;;;19.21;68.77
68075;BME280;54864;52.002;5.468;2022-08-19T04:14:00;101184.47;;;19.28;68.74
68075;BME280;54864;52.002;5.468;2022-08-19T04:15:03;101181.28;;;19.23;68.70
68075;BME280;54864;52.002;5.468;2022-08-19T04:16:06;101178.00;;;19.20;68.76
68075;BME280;54864;52.002;5.468;2022-08-19T04:17:10;101187.03;;;19.30;68.83
68075;BME280;54864;52.002;5.468;2022-08-19T04:18:13;101183.13;;;19.23;68.75
68075;BME280;54864;52.002;5.468;2022-08-19T04:19:15;101188.00;;;19.29;68.66
68075;BME280;54864;52.002;5.468;2022-08-19T04:20:18;101189.44;;;19.22;68.85
68075;BME280;54864;52.002;5.468;2022-08-19T04:21:20;101188.69;;;19.20;68.89
68075;BME280;54864;52.002;5.468;2022-08-19T04:22:26;101187.59;;;19.22;69.00
68075;BME280;54864;52.002;5.468;2022-08-19T04:23:28;101200.63;;;19.27;68.90
68075;BME280;54864;52.002;5.468;2022-08-19T04:24:30;101196.47;;;19.23;68.95
68075;BME280;54864;52.002;5.468;2022-08-19T04:25:36;101187.97;;;19.18;69.07
68075;BME280;54864;52.002;5.468;2022-08-19T04:26:37;101189.88;;;19.16;68.97
68075;BME280;54864;52.002;5.468;2022-08-19T04:27:39;101183.94;;;19.12;69.06
68075;BME280;54864;52.002;5.468;2022-08-19T04:28:43;101184.88;;;19.11;69.26
68075;BME280;54864;52.002;5.468;2022-08-19T04:29:45;101192.78;;;19.13;69.41
68075;BME280;54864;52.002;5.468;2022-08-19T04:30:49;101184.66;;;19.14;69.25
68075;BME280;54864;52.002;5.468;2022-08-19T04:31:53;101187.72;;;19.21;69.22
68075;BME280;54864;52.002;5.468;2022-08-19T04:32:56;101184.09;;;19.22;69.14
68075;BME280;54864;52.002;5.468;2022-08-19T04:33:59;101185.16;;;19.19;69.20
68075;BME280;54864;52.002;5.468;2022-08-19T04:35:02;101193.31;;;19.18;69.53
68075;BME280;54864;52.002;5.468;2022-08-19T04:36:04;101181.88;;;19.16;69.50
68075;BME280;54864;52.002;5.468;2022-08-19T04:37:06;101183.22;;;19.21;69.42
68075;BME280;54864;52.002;5.468;2022-08-19T04:38:12;101180.22;;;19.26;69.55
68075;BME280;54864;52.002;5.468;2022-08-19T04:39:16;101185.44;;;19.27;69.63
68075;BME280;54864;52.002;5.468;2022-08-19T04:40:18;101190.44;;;19.32;69.21
68075;BME280;54864;52.002;5.468;2022-08-19T04:41:37;101194.81;;;19.33;69.13
68075;BME280;54864;52.002;5.468;2022-08-19T04:42:56;101187.50;;;19.24;69.38
68075;BME280;54864;52.002;5.468;2022-08-19T04:43:58;101192.09;;;19.22;69.42
68075;BME280;54864;52.002;5.468;2022-08-19T04:45:00;101189.78;;;19.17;69.95
68075;BME280;54864;52.002;5.468;2022-08-19T04:46:06;101187.84;;;19.19;69.96
68075;BME280;54864;52.002;5.468;2022-08-19T04:47:08;101188.47;;;19.23;69.93
68075;BME280;54864;52.002;5.468;2022-08-19T04:48:10;101185.03;;;19.21;70.22
68075;BME280;54864;52.002;5.468;2022-08-19T04:49:11;101187.50;;;19.24;69.92
68075;BME280;54864;52.002;5.468;2022-08-19T04:50:13;101188.69;;;19.20;70.12
68075;BME280;54864;52.002;5.468;2022-08-19T04:51:14;101189.66;;;19.19;70.45
68075;BME280;54864;52.002;5.468;2022-08-19T04:52:17;101188.47;;;19.23;70.24
68075;BME280;54864;52.002;5.468;2022-08-19T04:53:17;101186.41;;;19.26;70.42
68075;BME280;54864;52.002;5.468;2022-08-19T04:54:20;101185.78;;;19.23;70.37
68075;BME280;54864;52.002;5.468;2022-08-19T04:55:23;101191.41;;;19.31;70.10
68075;BME280;54864;52.002;5.468;2022-08-19T04:56:26;101185.81;;;19.34;69.97
68075;BME280;54864;52.002;5.468;2022-08-19T04:57:27;101178.03;;;19.31;70.04
68075;BME280;54864;52.002;5.468;2022-08-19T04:58:29;101180.72;;;19.31;70.13
68075;BME280;54864;52.002;5.468;2022-08-19T04:59:30;101189.13;;;19.38;69.91
68075;BME280;54864;52.002;5.468;2022-08-19T05:00:32;101190.09;;;19.37;70.01
68075;BME280;54864;52.002;5.468;2022-08-19T05:01:34;101193.25;;;19.42;69.90
68075;BME280;54864;52.002;5.468;2022-08-19T05:02:37;101189.69;;;19.30;70.33
68075;BME280;54864;52.002;5.468;2022-08-19T05:03:38;101187.25;;;19.27;70.44
68075;BME280;54864;52.002;5.468;2022-08-19T05:04:40;101194.66;;;19.23;70.66
68075;BME280;54864;52.002;5.468;2022-08-19T05:05:41;101195.50;;;19.24;70.46
68075;BME280;54864;52.002;5.468;2022-08-19T05:06:43;101193.81;;;19.23;70.24
68075;BME280;54864;52.002;5.468;2022-08-19T05:07:44;101198.91;;;19.26;70.51
68075;BME280;54864;52.002;5.468;2022-08-19T05:08:47;101202.84;;;19.33;70.11
68075;BME280;54864;52.002;5.468;2022-08-19T05:09:48;101197.25;;;19.36;69.81
68075;BME280;54864;52.002;5.468;2022-08-19T05:10:51;101192.63;;;19.38;69.60
68075;BME280;54864;52.002;5.468;2022-08-19T05:11:52;101197.13;;;19.38;69.94
68075;BME280;54864;52.002;5.468;2022-08-19T05:12:54;101192.75;;;19.37;70.00
68075;BME280;54864;52.002;5.468;2022-08-19T05:13:55;101198.22;;;19.35;69.94
68075;BME280;54864;52.002;5.468;2022-08-19T05:14:58;101198.22;;;19.35;69.97
68075;BME280;54864;52.002;5.468;2022-08-19T05:15:59;101195.78;;;19.32;70.25
68075;BME280;54864;52.002;5.468;2022-08-19T05:17:02;101188.97;;;19.28;70.50
68075;BME280;54864;52.002;5.468;2022-08-19T05:18:03;101196.13;;;19.27;70.17
68075;BME280;54864;52.002;5.468;2022-08-19T05:19:23;101195.44;;;19.37;70.17
68075;BME280;54864;52.002;5.468;2022-08-19T05:20:42;101208.56;;;19.40;70.18
68075;BME280;54864;52.002;5.468;2022-08-19T05:22:01;101215.75;;;19.39;69.92
68075;BME280;54864;52.002;5.468;2022-08-19T05:23:21;101218.66;;;19.36;70.35
68075;BME280;54864;52.002;5.468;2022-08-19T05:24:23;101218.66;;;19.36;70.28
68075;BME280;54864;52.002;5.468;2022-08-19T05:25:24;101214.25;;;19.35;70.16
68075;BME280;54864;52.002;5.468;2022-08-19T05:26:26;101217.44;;;19.40;70.33
68075;BME280;54864;52.002;5.468;2022-08-19T05:27:27;101214.41;;;19.45;70.40
68075;BME280;54864;52.002;5.468;2022-08-19T05:28:29;101217.59;;;19.50;70.44